Time;durP1;ratioP1;P1;durP2;ratioP2;P2;SDS_P1;SDS_P2;PMS_P1;PMS_P2;Temp;Humidity;BMP_temperature;BMP_pressure;BME280_temperature;BME280_humidity;BME280_pressure;Samples;Min_cycle;Max_cycle;Signal;HPM_P1;HPM_P2
2023/05/11 00:02:15;;;;;;;7.90;5.50;;;;;;;9.46;57.11;100299.14;134248;1297;22368;-67
2023/05/11 00:05:16;;;;;;;10.00;6.20;;;;;;;9.44;57.52;100295.40;134096;1298;22172;-67
2023/05/11 00:08:20;;;;;;;12.60;5.80;;;;;;;9.40;57.53;100295.21;134188;1301;22404;-67
2023/05/11 00:11:23;;;;;;;12.20;5.60;;;;;;;9.37;57.50;100295.02;134254;1297;22977;-66
2023/05/11 00:14:30;;;;;;;7.50;5.50;;;;;;;9.35;57.55;100297.49;134211;1297;22351;-67
2023/05/11 00:17:30;;;;;;;10.30;6.00;;;;;;;9.34;57.81;100295.03;134094;1297;22477;-67
2023/05/11 00:20:32;;;;;;;8.80;5.40;;;;;;;9.32;57.86;100296.58;134224;1297;22224;-70
2023/05/11 00:23:33;;;;;;;11.00;5.90;;;;;;;9.29;57.95;100293.90;134193;1297;22389;-68
2023/05/11 00:26:37;;;;;;;;;;;;;;;9.27;57.97;100295.18;134079;1301;22495;-67
2023/05/11 00:29:38;;;;;;;8.60;5.50;;;;;;;9.23;58.14;100293.30;134196;1298;23415;-66
2023/05/11 00:32:41;;;;;;;;;;;;;;;9.19;58.46;100293.27;134100;1302;23112;-66
2023/05/11 00:35:42;;;;;;;8.70;5.60;;;;;;;9.14;58.63;100292.40;134221;1297;22458;-69
2023/05/11 00:38:43;;;;;;;12.30;6.80;;;;;;;9.10;58.85;100289.06;134209;1298;22236;-67
2023/05/11 00:42:05;;;;;;;;;;;;;;;9.07;58.75;100291.31;134081;1297;22806;-67
2023/05/11 00:45:06;;;;;;;8.00;5.70;;;;;;;9.04;59.09;100297.45;134180;1298;22373;-66
2023/05/11 00:48:09;;;;;;;16.00;6.30;;;;;;;9.02;59.00;100296.83;134076;1303;22454;-67
2023/05/11 00:51:11;;;;;;;10.50;5.90;;;;;;;9.02;59.05;100297.36;134096;1298;22402;-66
2023/05/11 00:54:14;;;;;;;8.40;5.60;;;;;;;9.02;59.15;100298.02;134060;1301;22280;-66
2023/05/11 00:57:15;;;;;;;8.00;5.90;;;;;;;9.03;59.13;100294.23;134206;1297;23218;-66
2023/05/11 01:00:19;;;;;;;12.70;5.90;;;;;;;9.04;59.25;100292.39;134065;1297;22506;-67
2023/05/11 01:03:23;;;;;;;7.50;5.30;;;;;;;9.04;59.20;100294.80;134232;1298;22482;-69
2023/05/11 01:06:27;;;;;;;8.20;5.30;;;;;;;9.04;59.34;100295.00;134204;1297;22513;-66
2023/05/11 01:09:39;;;;;;;8.80;5.90;;;;;;;9.02;59.40;100294.15;134066;1298;22363;-66
2023/05/11 01:13:15;;;;;;;9.90;6.30;;;;;;;8.98;59.56;100294.31;134207;1298;22262;-67
2023/05/11 01:16:23;;;;;;;9.90;5.70;;;;;;;8.94;59.67;100293.30;134063;1297;23272;-67
2023/05/11 01:20:04;;;;;;;9.10;5.50;;;;;;;8.91;59.71;100289.69;133902;1297;22445;-66
2023/05/11 01:23:26;;;;;;;11.40;6.30;;;;;;;8.90;60.01;100292.98;134044;1301;22488;-66
2023/05/11 01:26:51;;;;;;;10.10;6.20;;;;;;;8.87;60.00;100289.42;134077;1298;22362;-66
2023/05/11 01:30:14;;;;;;;13.40;6.10;;;;;;;8.86;59.94;100291.05;134221;1298;22450;-67
2023/05/11 01:33:22;;;;;;;10.20;5.80;;;;;;;8.88;60.05;100290.52;134057;1301;22419;-67
2023/05/11 01:36:31;;;;;;;10.90;6.20;;;;;;;8.89;60.10;100292.73;134058;1301;22435;-67
2023/05/11 01:39:37;;;;;;;8.00;5.40;;;;;;;8.87;60.30;100294.72;134065;1298;22252;-66
2023/05/11 01:42:43;;;;;;;13.70;6.30;;;;;;;8.88;60.40;100297.14;134098;1297;22404;-66
2023/05/11 01:46:05;;;;;;;10.60;6.30;;;;;;;8.88;60.48;100293.96;134127;1298;23110;-67
2023/05/11 01:49:07;;;;;;;9.70;6.20;;;;;;;8.86;60.65;100295.84;134222;1298;22378;-66
2023/05/11 01:52:10;;;;;;;8.50;5.70;;;;;;;8.84;60.73;100298.71;134219;1298;23201;-69
2023/05/11 01:55:13;;;;;;;10.60;6.00;;;;;;;8.82;60.77;100300.91;134101;1301;22488;-68
2023/05/11 01:58:16;;;;;;;9.40;6.10;;;;;;;8.79;60.82;100299.20;134247;1298;22379;-66
2023/05/11 02:01:27;;;;;;;7.30;5.30;;;;;;;8.77;61.00;100299.21;133947;1301;22402;-66
2023/05/11 02:04:28;;;;;;;;;;;;;;;8.74;61.15;100301.11;134118;1297;22488;-67
2023/05/11 02:07:31;;;;;;;9.40;5.90;;;;;;;8.70;61.31;100310.31;134089;1298;22391;-67
2023/05/11 02:10:33;;;;;;;11.20;6.20;;;;;;;8.70;61.28;100310.48;134108;1298;22462;-66
2023/05/11 02:13:35;;;;;;;12.40;6.40;;;;;;;8.71;61.48;100314.14;134228;1298;22452;-67
2023/05/11 02:16:37;;;;;;;13.30;6.50;;;;;;;8.70;61.49;100312.07;134074;1298;22184;-66
2023/05/11 02:19:40;;;;;;;9.00;6.40;;;;;;;8.70;61.58;100314.23;134100;1299;22459;-67
2023/05/11 02:22:44;;;;;;;11.10;6.20;;;;;;;8.69;61.55;100316.02;134106;1297;22942;-66
2023/05/11 02:25:47;;;;;;;10.60;6.40;;;;;;;8.69;61.71;100320.99;134084;1304;22439;-66
2023/05/11 02:28:48;;;;;;;10.10;6.20;;;;;;;8.68;61.85;100323.08;134236;1297;22366;-66
2023/05/11 02:31:59;;;;;;;16.50;6.90;;;;;;;8.66;61.95;100323.55;134266;1297;23092;-69
2023/05/11 02:35:04;;;;;;;;;;;;;;;8.65;62.12;100320.91;134243;1298;22506;-66
2023/05/11 02:38:07;;;;;;;9.90;6.70;;;;;;;8.62;62.02;100321.33;134093;1298;24460;-67
2023/05/11 02:41:12;;;;;;;12.60;7.00;;;;;;;8.63;62.17;100317.95;133919;1304;22383;-66
2023/05/11 02:44:17;;;;;;;14.40;6.70;;;;;;;8.63;62.24;100319.00;134083;1303;22375;-66
2023/05/11 02:47:27;;;;;;;11.60;6.00;;;;;;;8.61;62.30;100316.67;134098;1301;22900;-67
2023/05/11 02:50:30;;;;;;;12.00;6.20;;;;;;;8.60;62.39;100316.40;134085;1298;22457;-66
2023/05/11 02:53:32;;;;;;;9.00;6.70;;;;;;;8.61;62.40;100318.23;134097;1298;24665;-66
2023/05/11 02:56:34;;;;;;;10.00;6.10;;;;;;;8.63;62.38;100321.55;134093;1301;22355;-67
2023/05/11 02:59:45;;;;;;;9.80;6.70;;;;;;;8.67;62.34;100323.15;134100;1305;23120;-66
2023/05/11 03:02:56;;;;;;;9.30;5.80;;;;;;;8.66;62.32;100319.84;133928;1298;22678;-67
2023/05/11 03:06:04;;;;;;;9.80;5.70;;;;;;;8.63;62.40;100324.20;134089;1297;22425;-69
2023/05/11 03:09:08;;;;;;;10.30;6.00;;;;;;;8.63;62.37;100320.36;134086;1298;23144;-66
2023/05/11 03:12:14;;;;;;;12.00;6.90;;;;;;;8.61;62.38;100321.05;134081;1300;22431;-68
2023/05/11 03:15:15;;;;;;;14.00;5.80;;;;;;;8.64;62.38;100317.66;134088;1297;22399;-66
2023/05/11 03:18:18;;;;;;;15.80;6.60;;;;;;;8.62;62.26;100316.98;134083;1298;22416;-67
2023/05/11 03:21:21;;;;;;;13.00;6.10;;;;;;;8.61;62.35;100315.41;134087;1298;22474;-66
2023/05/11 03:24:23;;;;;;;13.40;5.90;;;;;;;8.62;62.28;100316.61;134127;1298;22164;-67
2023/05/11 03:27:28;;;;;;;11.20;5.80;;;;;;;8.63;62.26;100320.37;134082;1299;22440;-66
2023/05/11 03:30:31;;;;;;;9.00;5.70;;;;;;;8.62;62.36;100319.20;134103;1305;22453;-66
2023/05/11 03:33:52;;;;;;;10.10;6.20;;;;;;;8.61;62.43;100322.65;134101;1305;22412;-66
2023/05/11 03:36:56;;;;;;;10.90;6.40;;;;;;;8.62;62.53;100321.55;134197;1299;22198;-67
2023/05/11 03:39:59;;;;;;;12.90;6.40;;;;;;;8.65;62.65;100324.09;134079;1298;22303;-66
2023/05/11 03:43:03;;;;;;;9.40;6.20;;;;;;;8.65;62.67;100324.42;134053;1298;23114;-66
2023/05/11 03:46:05;;;;;;;10.60;5.50;;;;;;;8.64;62.60;100324.31;134062;1299;22301;-66
2023/05/11 03:49:07;;;;;;;11.20;5.70;;;;;;;8.65;62.65;100323.13;133907;1292;22427;-66
2023/05/11 03:52:11;;;;;;;10.90;6.10;;;;;;;8.67;62.72;100324.68;134223;1297;22363;-67
2023/05/11 03:55:12;;;;;;;10.10;5.40;;;;;;;8.71;62.76;100323.48;134049;1298;22331;-66
2023/05/11 03:58:17;;;;;;;10.30;5.60;;;;;;;8.71;62.78;100321.67;134053;1301;22302;-67
2023/05/11 04:01:18;;;;;;;11.50;5.80;;;;;;;8.73;62.88;100324.86;134179;1297;22440;-66
2023/05/11 04:04:29;;;;;;;10.10;6.30;;;;;;;8.73;62.91;100326.90;134170;1298;23130;-67
2023/05/11 04:07:31;;;;;;;12.50;6.90;;;;;;;8.76;62.97;100327.05;134075;1298;23112;-69
2023/05/11 04:10:32;;;;;;;;;;;;;;;8.78;62.96;100325.59;134227;1298;22528;-69
2023/05/11 04:13:36;;;;;;;11.50;6.30;;;;;;;8.78;63.00;100325.08;134215;1297;22566;-67
2023/05/11 04:16:46;;;;;;;10.50;6.00;;;;;;;8.79;62.97;100328.71;134062;1301;22455;-67
2023/05/11 04:19:57;;;;;;;12.20;5.60;;;;;;;8.81;62.89;100326.56;134175;1294;22398;-67
2023/05/11 04:23:01;;;;;;;8.30;6.00;;;;;;;8.84;62.86;100324.52;134175;1298;22438;-67
2023/05/11 04:26:05;;;;;;;9.60;6.00;;;;;;;8.86;62.85;100323.23;134067;1291;22337;-67
2023/05/11 04:29:06;;;;;;;13.30;6.10;;;;;;;8.87;62.79;100324.31;134082;1298;22383;-67
2023/05/11 04:32:07;;;;;;;9.10;6.30;;;;;;;8.91;62.89;100325.02;134209;1297;22390;-70
2023/05/11 04:35:28;;;;;;;7.30;5.50;;;;;;;8.96;62.88;100327.02;134058;1304;23236;-69
2023/05/11 04:38:31;;;;;;;10.70;6.30;;;;;;;9.05;63.05;100331.20;134111;1301;22379;-68
2023/05/11 04:41:46;;;;;;;;;;;;;;;;;;;;;
2023/05/11 04:44:59;;;;;;;9.70;5.70;;;;;;;9.13;62.84;100331.46;134035;1297;22474;-68
2023/05/11 04:48:19;;;;;;;8.00;5.40;;;;;;;9.19;62.77;100338.17;134176;1298;22407;-68
2023/05/11 04:51:32;;;;;;;13.90;6.30;;;;;;;9.22;62.99;100333.66;134068;1298;22334;-71
2023/05/11 04:54:36;;;;;;;12.00;5.90;;;;;;;9.26;62.77;100335.98;134180;1305;22326;-69
2023/05/11 04:57:42;;;;;;;8.00;5.80;;;;;;;9.30;62.67;100337.61;134196;1297;22462;-69
2023/05/11 05:00:49;;;;;;;7.60;5.60;;;;;;;9.32;62.44;100337.05;134172;1298;22200;-69
2023/05/11 05:04:22;;;;;;;;;;;;;;;;;;;;;
2023/05/11 05:07:52;;;;;;;15.10;6.40;;;;;;;9.39;62.74;100347.92;134086;1298;22376;-68
2023/05/11 05:11:14;;;;;;;8.80;5.90;;;;;;;9.44;62.61;100348.21;134037;1302;22436;-68
2023/05/11 05:14:14;;;;;;;11.90;6.20;;;;;;;9.50;62.70;100339.88;134134;1298;23409;-68
2023/05/11 05:17:20;;;;;;;10.10;5.90;;;;;;;9.56;62.90;100348.88;133981;1299;22461;-68
2023/05/11 05:20:28;;;;;;;9.70;6.20;;;;;;;9.66;62.63;100349.16;134094;1298;22460;-68
2023/05/11 05:23:32;;;;;;;9.00;6.20;;;;;;;9.78;62.60;100356.10;134059;1304;22451;-68
2023/05/11 05:26:40;;;;;;;11.30;6.40;;;;;;;9.97;62.50;100354.09;134040;1298;22355;-67
2023/05/11 05:30:13;;;;;;;;;;;;;;;;;;;;;
2023/05/11 05:33:26;;;;;;;11.60;7.10;;;;;;;10.87;62.27;100352.88;134002;1304;22236;-68
2023/05/11 05:36:27;;;;;;;10.30;5.90;;;;;;;11.19;61.85;100352.15;134182;1298;22332;-68
2023/05/11 05:39:47;;;;;;;10.20;6.70;;;;;;;11.36;61.07;100354.27;134216;1298;22989;-67
2023/05/11 05:43:03;;;;;;;12.20;6.80;;;;;;;11.38;61.03;100352.90;134161;1299;22421;-68
2023/05/11 05:46:12;;;;;;;15.50;6.60;;;;;;;11.45;60.65;100355.89;134062;1301;22462;-69
2023/05/11 05:49:14;;;;;;;12.60;7.30;;;;;;;11.59;60.86;100358.24;134038;1299;25588;-67
2023/05/11 05:52:37;;;;;;;9.40;6.40;;;;;;;11.75;60.77;100359.88;134103;1298;22967;-68
2023/05/11 05:56:03;;;;;;;11.40;6.90;;;;;;;11.79;60.34;100363.86;134182;1305;22147;-70
2023/05/11 05:59:09;;;;;;;16.60;7.20;;;;;;;11.90;60.03;100363.27;134059;1298;22421;-69
2023/05/11 06:02:13;;;;;;;12.90;7.40;;;;;;;11.83;59.90;100364.30;134170;1298;22304;-68
2023/05/11 06:05:23;;;;;;;15.30;6.80;;;;;;;11.81;60.00;100366.48;134020;1298;22378;-68
2023/05/11 06:08:33;;;;;;;11.20;7.50;;;;;;;11.75;59.80;100363.77;133912;1297;22224;-68
2023/05/11 06:11:52;;;;;;;11.00;7.20;;;;;;;11.67;59.91;100366.21;134197;1298;22152;-69
2023/05/11 06:15:06;;;;;;;12.80;6.60;;;;;;;11.65;60.15;100368.27;134028;1301;22507;-69
2023/05/11 06:18:19;;;;;;;;;;;;;;;;;;;;;
2023/05/11 06:21:48;;;;;;;14.30;7.20;;;;;;;11.69;59.87;100372.29;134068;1301;22421;-68
2023/05/11 06:24:52;;;;;;;12.00;7.30;;;;;;;11.74;60.07;100374.74;134071;1301;22139;-69
2023/05/11 06:27:56;;;;;;;14.20;8.40;;;;;;;11.81;60.05;100372.01;134079;1298;22407;-69
2023/05/11 06:31:02;;;;;;;11.60;7.70;;;;;;;11.94;60.25;100374.86;134054;1298;22224;-69
2023/05/11 06:34:05;;;;;;;17.10;7.80;;;;;;;12.04;59.87;100373.69;134040;1298;22384;-71
2023/05/11 06:37:07;;;;;;;9.50;7.10;;;;;;;12.11;59.74;100370.30;134042;1303;23147;-69
2023/05/11 06:40:31;;;;;;;;;;;;;;;;;;;;;
2023/05/11 06:43:59;;;;;;;12.70;7.50;;;;;;;12.28;59.65;100368.73;134039;1301;23092;-68
2023/05/11 06:47:41;;;;;;;;;;;;;;;12.42;59.93;100369.48;134077;1297;22435;-69
2023/05/11 06:54:38;;;;;;;;;;;;;;;;;;;;;
2023/05/11 06:57:50;;;;;;;17.00;7.30;;;;;;;13.04;59.32;100364.63;134203;1298;22481;-68
2023/05/11 07:05:13;;;;;;;14.10;7.20;;;;;;;13.80;58.95;100367.27;133934;1298;22352;-69
2023/05/11 07:08:14;;;;;;;13.50;7.50;;;;;;;14.11;58.29;100369.85;134202;1298;22378;-69
2023/05/11 07:11:17;;;;;;;11.30;7.30;;;;;;;14.22;58.01;100367.26;134213;1299;22284;-69
2023/05/11 07:14:40;;;;;;;14.00;7.10;;;;;;;14.48;57.87;100366.99;134202;1298;22468;-69
2023/05/11 07:17:46;;;;;;;12.50;6.20;;;;;;;14.71;57.31;100362.73;134219;1301;22562;-69
2023/05/11 07:21:14;;;;;;;;;;;;;;;;;;;;;
2023/05/11 07:25:01;;;;;;;11.80;6.60;;;;;;;14.82;56.54;100361.50;134215;1305;23214;-71
2023/05/11 07:28:28;;;;;;;11.70;6.80;;;;;;;14.90;56.66;100363.86;134207;1298;22401;-69
2023/05/11 07:31:47;;;;;;;;;;;;;;;;;;;;;
2023/05/11 07:34:59;;;;;;;8.40;5.10;;;;;;;15.31;56.06;100368.04;134164;1295;22949;-69
2023/05/11 07:38:02;;;;;;;10.30;6.70;;;;;;;15.35;55.75;100365.73;134171;1298;23207;-69
2023/05/11 07:41:30;;;;;;;11.40;5.60;;;;;;;15.41;55.46;100367.73;134213;1298;22537;-69
2023/05/11 07:44:47;;;;;;;12.20;7.70;;;;;;;15.55;55.85;100369.13;134162;1298;23462;-69
2023/05/11 07:48:13;;;;;;;13.00;6.80;;;;;;;15.60;55.70;100370.45;134163;1299;22352;-69
2023/05/11 07:52:14;;;;;;;12.30;7.40;;;;;;;15.68;55.94;100373.78;130112;1299;5414887;-70
2023/05/11 07:55:18;;;;;;;9.10;7.00;;;;;;;15.72;55.81;100375.58;134057;1298;22447;-69
2023/05/11 07:58:50;;;;;;;;;;;;;;;;;;;;;
2023/05/11 08:02:31;;;;;;;14.10;7.50;;;;;;;15.86;55.43;100373.96;133899;1298;23045;-69
2023/05/11 08:06:11;;;;;;;9.50;7.00;;;;;;;15.94;55.33;100374.05;134206;1298;22212;-69
2023/05/11 08:09:44;;;;;;;9.00;6.30;;;;;;;16.28;55.43;100372.56;134089;1297;22402;-70
2023/05/11 08:13:36;;;;;;;;;;;;;;;;;;;;;
2023/05/11 08:16:49;;;;;;;16.40;6.40;;;;;;;17.53;54.79;100364.12;133821;1297;22404;-69
2023/05/11 08:20:23;;;;;;;;;;;;;;;;;;;;;
2023/05/11 08:24:08;;;;;;;11.80;5.90;;;;;;;18.54;53.44;100363.95;134190;1298;22675;-71
2023/05/11 08:27:13;;;;;;;13.70;6.30;;;;;;;19.07;52.91;100360.71;134206;1298;23234;-69
2023/05/11 08:30:22;;;;;;;8.00;5.60;;;;;;;19.78;52.00;100359.04;134198;1299;22983;-71
2023/05/11 08:33:30;;;;;;;8.40;5.20;;;;;;;20.25;51.23;100357.41;134100;1298;22187;-70
2023/05/11 08:36:37;;;;;;;11.70;5.70;;;;;;;20.58;50.53;100357.05;134042;1297;22217;-72
2023/05/11 08:40:02;;;;;;;9.50;6.10;;;;;;;20.91;50.20;100349.65;134235;1297;22227;-69
2023/05/11 08:44:00;;;;;;;7.30;4.80;;;;;;;21.38;49.32;100346.55;134182;1298;22368;-69
2023/05/11 08:50:34;;;;;;;7.30;4.10;;;;;;;21.78;47.03;100341.45;134230;1297;22223;-69
2023/05/11 08:54:06;;;;;;;;;;;;;;;;;;;;;
2023/05/11 08:58:18;;;;;;;;;;;;;;;;;;;;;
2023/05/11 09:01:49;;;;;;;5.00;3.70;;;;;;;21.71;44.45;100339.67;134200;1298;23121;-69
2023/05/11 09:05:33;;;;;;;6.00;3.90;;;;;;;21.61;43.77;100341.59;134066;1298;22398;-69
2023/05/11 09:09:16;;;;;;;8.00;3.60;;;;;;;21.90;43.98;100340.15;134223;1298;23199;-69
2023/05/11 09:13:25;;;;;;;5.30;3.80;;;;;;;22.03;43.91;100336.71;133961;1298;23166;-70
2023/05/11 09:17:02;;;;;;;5.40;4.40;;;;;;;21.66;43.52;100337.88;134045;1300;22453;-69
2023/05/11 09:20:37;;;;;;;5.20;4.00;;;;;;;21.41;42.80;100333.46;134061;1302;23143;-70
2023/05/11 09:24:11;;;;;;;4.90;3.90;;;;;;;21.31;42.75;100330.80;134182;1297;23079;-70
2023/05/11 09:28:31;;;;;;;3.90;3.60;;;;;;;21.26;43.05;100330.99;134195;1298;22401;-69
2023/05/11 09:32:02;;;;;;;;;;;;;;;;;;;;;
2023/05/11 09:35:41;;;;;;;5.20;3.50;;;;;;;21.12;42.04;100328.76;134191;1297;22209;-69
2023/05/11 09:39:33;;;;;;;4.90;3.60;;;;;;;21.14;41.50;100330.30;134197;1297;22439;-69
2023/05/11 09:43:37;;;;;;;;;;;;;;;;;;;;;
2023/05/11 09:47:14;;;;;;;7.00;3.20;;;;;;;20.75;41.10;100329.66;134211;1297;23016;-69
2023/05/11 09:51:02;;;;;;;5.40;3.40;;;;;;;20.22;41.16;100334.86;134069;1298;22352;-69
2023/05/11 09:54:23;;;;;;;3.80;3.30;;;;;;;20.04;41.69;100324.96;134099;1298;22386;-69
2023/05/11 09:58:10;;;;;;;;;;;;;;;;;;;;;
2023/05/11 10:01:36;;;;;;;;;;;;;;;;;;;;;
2023/05/11 10:05:02;;;;;;;;;;;;;;;;;;;;;
2023/05/11 10:08:27;;;;;;;3.10;2.80;;;;;;;19.94;40.83;100328.38;134052;1298;22367;-69
2023/05/11 10:11:56;;;;;;;3.90;3.10;;;;;;;20.04;41.32;100319.40;133941;1298;22337;-69
2023/05/11 10:15:08;;;;;;;4.60;3.60;;;;;;;20.58;41.85;100314.80;134175;1298;22418;-72
2023/05/11 10:18:44;;;;;;;;;;;;;;;;;;;;;
2023/05/11 10:22:38;;;;;;;5.40;3.00;;;;;;;21.23;39.24;100313.80;134148;1298;22207;-69
2023/05/11 10:25:52;;;;;;;8.60;3.60;;;;;;;20.85;39.77;100310.73;134199;1298;22405;-70
2023/05/11 10:29:30;;;;;;;;;;;;;;;;;;;;;
2023/05/11 10:33:11;;;;;;;5.20;3.50;;;;;;;20.01;40.89;100310.86;134175;1297;22425;-70
2023/05/11 10:36:16;;;;;;;9.80;4.00;;;;;;;19.79;41.49;100310.96;134072;1299;22201;-69
2023/05/11 10:39:37;;;;;;;9.50;3.80;;;;;;;19.79;42.00;100305.16;134043;1298;22376;-68
2023/05/11 10:43:41;;;;;;;6.40;3.80;;;;;;;20.25;42.43;100299.05;134157;1298;23173;-70
2023/05/11 10:47:17;;;;;;;6.40;3.30;;;;;;;20.91;41.93;100290.55;134052;1297;22177;-69
2023/05/11 10:51:15;;;;;;;3.70;2.00;;;;;;;21.34;41.26;100292.94;134090;1298;22386;-68
2023/05/11 10:54:58;;;;;;;;;;;;;;;;;;;;;
2023/05/11 10:58:43;;;;;;;5.30;3.40;;;;;;;21.55;39.58;100291.71;134170;1297;22423;-71
2023/05/11 11:02:17;;;;;;;4.20;3.40;;;;;;;21.38;39.60;100288.95;134188;1297;23365;-69
2023/05/11 11:05:46;;;;;;;5.20;3.30;;;;;;;21.08;39.87;100290.72;134050;1298;22390;-72
2023/05/11 11:10:05;;;;;;;5.30;3.30;;;;;;;20.69;39.85;100287.02;134206;1298;24652;-69
2023/05/11 11:13:27;;;;;;;;;;;;;;;;;;;;;
2023/05/11 11:17:15;;;;;;;7.90;3.70;;;;;;;20.05;40.84;100295.73;133382;1305;23141;-69
2023/05/11 11:21:06;;;;;;;4.90;3.40;;;;;;;19.89;40.85;100299.42;134175;1297;22483;-70
2023/05/11 11:25:00;;;;;;;5.50;3.40;;;;;;;19.62;41.17;100294.91;134030;1297;22393;-69
2023/05/11 11:28:13;;;;;;;5.50;3.90;;;;;;;19.43;41.80;100298.17;134184;1298;22371;-69
2023/05/11 11:31:35;;;;;;;8.00;3.80;;;;;;;19.24;41.43;100302.10;134195;1301;22392;-71
2023/05/11 11:34:38;;;;;;;5.80;3.50;;;;;;;19.12;41.40;100301.63;134059;1298;23046;-68
2023/05/11 11:38:22;;;;;;;7.70;3.80;;;;;;;19.04;41.79;100297.54;134216;1297;22366;-70
2023/05/11 11:42:14;;;;;;;;;;;;;;;;;;;;;
2023/05/11 11:46:24;;;;;;;;;;;;;;;;;;;;;
2023/05/11 11:49:53;;;;;;;5.10;3.60;;;;;;;19.07;42.32;100294.79;134163;1297;23070;-71
2023/05/11 11:53:08;;;;;;;4.60;3.10;;;;;;;19.24;41.84;100292.50;134187;1297;22202;-70
2023/05/11 11:56:38;;;;;;;5.00;3.30;;;;;;;19.55;41.71;100297.20;134156;1298;22362;-70
2023/05/11 12:00:25;;;;;;;3.70;3.30;;;;;;;19.59;41.62;100293.36;134161;1297;22355;-74
2023/05/11 12:04:15;;;;;;;3.70;3.20;;;;;;;19.55;41.74;100296.71;134119;1298;23164;-74
2023/05/11 12:07:34;;;;;;;;;;;;;;;;;;;;;
2023/05/11 12:11:10;;;;;;;6.50;3.50;;;;;;;19.45;41.55;100294.69;134198;1297;22851;-71
2023/05/11 12:14:58;;;;;;;;;;;;;;;;;;;;;
2023/05/11 12:18:20;;;;;;;3.30;3.00;;;;;;;19.49;40.96;100294.66;134178;1298;22439;-71
2023/05/11 12:21:54;;;;;;;3.50;2.90;;;;;;;19.60;41.22;100293.73;134165;1302;22375;-70
2023/05/11 12:25:22;;;;;;;2.90;2.50;;;;;;;19.96;40.80;100289.66;134173;1298;22515;-71
2023/05/11 12:28:36;;;;;;;3.70;3.20;;;;;;;20.44;40.49;100284.15;134078;1298;22389;-71
2023/05/11 12:31:54;;;;;;;;;;;;;;;;;;;;;
2023/05/11 12:35:39;;;;;;;;;;;;;;;;;;;;;
2023/05/11 12:40:03;;;;;;;3.70;2.90;;;;;;;20.42;39.21;100269.45;134073;1298;23257;-71
2023/05/11 12:47:34;;;;;;;4.90;2.60;;;;;;;20.72;39.18;100260.58;134149;1297;22428;-73
2023/05/11 12:51:09;;;;;;;3.50;2.90;;;;;;;21.00;38.84;100261.46;134179;1297;22477;-72
2023/05/11 12:54:32;;;;;;;4.10;2.90;;;;;;;21.13;38.34;100252.58;134165;1297;23163;-71
2023/05/11 12:58:18;;;;;;;4.30;2.90;;;;;;;21.01;37.79;100256.22;134186;1297;22146;-72
2023/05/11 13:02:09;;;;;;;4.90;2.90;;;;;;;21.02;37.96;100250.23;134127;1297;23198;-72
2023/05/11 13:05:28;;;;;;;4.10;2.60;;;;;;;20.82;37.64;100245.48;134099;1297;23001;-73
2023/05/11 13:09:32;;;;;;;;;;;;;;;;;;;;;
2023/05/11 13:12:50;;;;;;;3.60;2.60;;;;;;;20.37;37.55;100238.17;134202;1297;23293;-71
2023/05/11 13:16:04;;;;;;;4.30;2.30;;;;;;;20.51;36.68;100233.60;134063;1301;23079;-71
2023/05/11 13:20:11;;;;;;;;;;;;;;;;;;;;;
2023/05/11 13:23:47;;;;;;;4.40;3.10;;;;;;;20.57;36.04;100234.02;134153;1298;23064;-71
2023/05/11 13:28:00;;;;;;;;;;;;;;;;;;;;;
2023/05/11 13:31:27;;;;;;;3.80;2.70;;;;;;;20.20;37.07;100234.01;134224;1297;22384;-70
2023/05/11 13:35:07;;;;;;;;;;;;;;;;;;;;;
2023/05/11 13:38:18;;;;;;;7.50;3.10;;;;;;;20.00;36.91;100227.88;134195;1297;22648;-72
2023/05/11 13:42:23;;;;;;;;;;;;;;;;;;;;;
2023/05/11 13:45:51;;;;;;;3.20;2.80;;;;;;;19.89;37.03;100226.81;134097;1297;22453;-70
2023/05/11 13:49:34;;;;;;;4.60;2.90;;;;;;;19.81;36.91;100227.83;134154;1297;23144;-70
2023/05/11 13:53:27;;;;;;;3.60;2.90;;;;;;;19.74;37.32;100226.17;134104;1297;22380;-71
2023/05/11 13:57:00;;;;;;;4.30;3.10;;;;;;;19.68;37.42;100223.89;134154;1304;22496;-71
2023/05/11 14:00:18;;;;;;;;;;;;;;;;;;;;;
2023/05/11 14:04:09;;;;;;;5.60;3.10;;;;;;;20.17;37.99;100207.98;134225;1297;22418;-72
2023/05/11 14:07:36;;;;;;;3.40;2.70;;;;;;;20.45;36.50;100203.20;134163;1297;22225;-71
2023/05/11 14:15:14;;;;;;;;;;;;;;;;;;;;;
2023/05/11 14:18:49;;;;;;;4.00;2.80;;;;;;;20.93;35.12;100198.23;134089;1300;22407;-70
2023/05/11 14:22:14;;;;;;;5.90;2.80;;;;;;;20.82;35.34;100193.87;134200;1297;22867;-71
2023/05/11 14:25:20;;;;;;;4.30;2.60;;;;;;;20.55;34.85;100194.62;134184;1297;22385;-71
2023/05/11 14:28:22;;;;;;;5.30;2.70;;;;;;;20.42;35.10;100197.15;134031;1297;22925;-72
2023/05/11 14:31:26;;;;;;;3.40;3.10;;;;;;;20.40;35.56;100198.38;134193;1297;23015;-71
2023/05/11 14:34:49;;;;;;;3.70;2.80;;;;;;;20.34;35.49;100196.55;134179;1297;23235;-71
2023/05/11 14:38:12;;;;;;;3.70;2.60;;;;;;;20.24;35.60;100191.15;134189;1297;23180;-70
2023/05/11 14:41:13;;;;;;;3.80;3.20;;;;;;;20.10;35.39;100193.80;134197;1297;22250;-71
2023/05/11 14:44:14;;;;;;;3.10;2.80;;;;;;;20.04;35.76;100188.10;134202;1298;23165;-71
2023/05/11 14:47:16;;;;;;;7.10;2.80;;;;;;;20.02;35.95;100190.89;134200;1297;23040;-73
2023/05/11 14:50:17;;;;;;;3.60;2.70;;;;;;;19.98;36.14;100187.85;134178;1298;23107;-70
2023/05/11 14:53:18;;;;;;;4.30;3.20;;;;;;;19.93;35.85;100185.30;134193;1297;23325;-71
2023/05/11 14:56:31;;;;;;;;;;;;;;;;;;;;;
2023/05/11 14:59:36;;;;;;;3.50;2.70;;;;;;;19.88;36.20;100185.27;134187;1297;23201;-72
2023/05/11 15:02:43;;;;;;;4.10;3.10;;;;;;;19.87;36.44;100183.91;134189;1298;23361;-71
2023/05/11 15:06:08;;;;;;;4.60;3.00;;;;;;;19.94;36.04;100191.63;134160;1297;23133;-71
2023/05/11 15:09:12;;;;;;;6.10;2.90;;;;;;;20.00;36.06;100189.92;134255;1297;22420;-71
2023/05/11 15:12:36;;;;;;;3.70;2.70;;;;;;;20.08;36.42;100182.86;134251;1297;22397;-71
2023/05/11 15:16:12;;;;;;;4.30;2.90;;;;;;;20.16;36.15;100181.52;134205;1297;22419;-71
2023/05/11 15:19:16;;;;;;;5.20;3.20;;;;;;;20.23;35.96;100188.76;134175;1297;23434;-71
2023/05/11 15:22:34;;;;;;;;;;;;;;;;;;;;;
2023/05/11 15:26:18;;;;;;;3.50;3.00;;;;;;;20.02;34.95;100190.89;134210;1297;22428;-71
2023/05/11 15:29:25;;;;;;;5.20;2.90;;;;;;;19.88;35.07;100191.52;134227;1297;23240;-71
2023/05/11 15:32:55;;;;;;;4.90;3.10;;;;;;;19.73;35.23;100190.88;134186;1297;23008;-71
2023/05/11 15:36:17;;;;;;;8.20;3.20;;;;;;;19.63;35.72;100192.01;134220;1297;23280;-70
2023/05/11 15:39:43;;;;;;;4.30;3.20;;;;;;;19.57;36.01;100193.06;134092;1297;22430;-72
2023/05/11 15:43:13;;;;;;;;;;;;;;;;;;;;;
2023/05/11 15:46:31;;;;;;;3.50;2.80;;;;;;;19.48;35.71;100199.86;134189;1298;23263;-71
2023/05/11 15:49:45;;;;;;;3.70;2.70;;;;;;;19.54;35.38;100202.13;134201;1298;22438;-71
2023/05/11 15:52:49;;;;;;;6.90;3.30;;;;;;;19.60;35.82;100197.08;134245;1298;22371;-71
2023/05/11 15:56:31;;;;;;;5.10;2.90;;;;;;;19.66;35.72;100190.41;134216;1297;23248;-71
2023/05/11 15:59:45;;;;;;;5.60;2.80;;;;;;;19.67;36.07;100192.10;134212;1297;23030;-71
2023/05/11 16:02:47;;;;;;;5.60;3.10;;;;;;;19.59;35.81;100188.60;134219;1297;22376;-71
2023/05/11 16:10:32;;;;;;;;;;;;;;;;;;;;;
2023/05/11 16:14:16;;;;;;;4.30;2.60;;;;;;;19.46;35.93;100186.23;134204;1298;22811;-71
2023/05/11 16:17:49;;;;;;;;;;;;;;;;;;;;;
2023/05/11 16:20:50;;;;;;;4.50;2.80;;;;;;;19.38;35.80;100192.27;134212;1285;22436;-71
2023/05/11 16:28:13;;;;;;;;;;;;;;;;;;;;;
2023/05/11 16:31:57;;;;;;;4.20;2.90;;;;;;;19.08;35.95;100190.06;133917;1298;23184;-70
2023/05/11 16:35:37;;;;;;;;;;;;;;;;;;;;;
2023/05/11 16:39:23;;;;;;;5.80;3.00;;;;;;;19.06;35.85;100188.81;134218;1288;22369;-71
2023/05/11 16:42:34;;;;;;;5.70;3.30;;;;;;;19.07;36.27;100183.96;133946;1297;22427;-70
2023/05/11 16:46:18;;;;;;;;;;;;;;;;;;;;;
2023/05/11 16:50:16;;;;;;;;;;;;;;;;;;;;;
2023/05/11 16:54:02;;;;;;;;;;;;;;;19.01;36.94;100181.94;134146;1298;22529;-71
2023/05/11 16:57:47;;;;;;;;;;;;;;;;;;;;;
2023/05/11 17:01:50;;;;;;;5.80;2.40;;;;;;;18.91;37.42;100180.37;133954;1298;22376;-73
2023/05/11 17:05:09;;;;;;;;;;;;;;;;;;;;;
2023/05/11 17:08:33;;;;;;;6.40;3.70;;;;;;;18.77;37.37;100186.35;134173;1297;22542;-73
2023/05/11 17:11:35;;;;;;;5.00;2.70;;;;;;;18.71;37.11;100186.06;134217;1297;23501;-71
2023/05/11 17:14:42;;;;;;;4.20;2.90;;;;;;;18.64;37.10;100185.60;134057;1297;22202;-71